createdAt,value
2022-08-16T00:02:31.072Z,15.70
2022-08-16T00:04:59.641Z,14.10
2022-08-16T00:07:29.293Z,15.95
2022-08-16T00:09:57.025Z,14.50
2022-08-16T00:12:24.642Z,14.68
2022-08-16T00:14:56.380Z,14.07
2022-08-16T00:17:24.132Z,15.13
2022-08-16T00:19:53.424Z,13.90
2022-08-16T00:22:25.098Z,13.60
2022-08-16T00:24:53.379Z,14.82
2022-08-16T00:27:21.576Z,14.27
2022-08-16T00:30:08.334Z,14.98
2022-08-16T00:32:39.140Z,16.02
2022-08-16T00:35:14.919Z,16.00
2022-08-16T00:37:58.650Z,17.70
2022-08-16T00:40:34.486Z,16.73
2022-08-16T00:43:12.030Z,18.92
2022-08-16T00:46:33.300Z,17.33
2022-08-16T00:49:06.828Z,17.15
2022-08-16T00:51:55.226Z,18.40
2022-08-16T00:54:23.963Z,19.13
2022-08-16T00:56:58.208Z,18.35
2022-08-16T00:59:29.254Z,18.65
2022-08-16T01:01:56.650Z,18.00
2022-08-16T01:04:30.056Z,18.40
2022-08-16T01:07:01.447Z,17.58
2022-08-16T01:09:33.578Z,17.23
2022-08-16T01:12:01.945Z,18.23
2022-08-16T01:14:31.441Z,18.00
2022-08-16T01:17:01.865Z,18.33
2022-08-16T01:19:35.914Z,18.67
2022-08-16T01:22:46.977Z,18.67
2022-08-16T01:25:34.608Z,17.52
2022-08-16T01:28:07.045Z,17.35
2022-08-16T01:30:40.186Z,17.48
2022-08-16T01:33:17.607Z,17.63
2022-08-16T01:35:52.613Z,17.30
2022-08-16T01:38:30.473Z,18.30
2022-08-16T01:41:02.568Z,16.33
2022-08-16T01:43:32.701Z,17.92
2022-08-16T01:46:29.342Z,17.27
2022-08-16T01:48:49.114Z,17.83
2022-08-16T01:51:17.555Z,17.70
2022-08-16T01:53:54.716Z,17.63
2022-08-16T01:56:25.195Z,18.20
2022-08-16T01:58:54.683Z,16.80
2022-08-16T02:01:22.128Z,16.70
2022-08-16T02:03:50.510Z,17.88
2022-08-16T02:06:33.814Z,17.15
2022-08-16T02:09:02.227Z,16.17
2022-08-16T02:11:47.303Z,16.10
2022-08-16T02:14:18.300Z,16.58
2022-08-16T02:16:51.539Z,16.85
2022-08-16T02:19:19.788Z,18.65
2022-08-16T02:22:09.248Z,16.70
2022-08-16T02:24:42.110Z,16.70
2022-08-16T02:27:13.276Z,16.77
2022-08-16T02:29:46.635Z,16.73
2022-08-16T02:32:50.837Z,17.27
2022-08-16T02:35:01.915Z,17.38
2022-08-16T02:37:51.294Z,16.90
2022-08-16T02:40:19.504Z,16.65
2022-08-16T02:42:49.743Z,16.33
2022-08-16T02:45:18.975Z,16.88
2022-08-16T02:48:00.323Z,17.90
2022-08-16T02:50:54.119Z,17.93
2022-08-16T02:53:23.359Z,16.60
2022-08-16T02:55:51.178Z,16.10
2022-08-16T02:58:26.060Z,16.55
2022-08-16T03:00:55.879Z,18.73
2022-08-16T03:04:39.241Z,17.23
2022-08-16T03:06:41.392Z,16.40
2022-08-16T03:09:11.832Z,16.98
2022-08-16T03:11:40.872Z,16.48
2022-08-16T03:14:08.488Z,16.80
2022-08-16T03:16:42.203Z,16.65
2022-08-16T03:19:25.851Z,16.65
2022-08-16T03:22:19.371Z,16.60
2022-08-16T03:25:01.843Z,19.70
2022-08-16T03:27:30.599Z,17.15
2022-08-16T03:29:58.653Z,17.17
2022-08-16T03:32:26.138Z,17.60
2022-08-16T03:34:53.505Z,17.92
2022-08-16T03:37:24.358Z,18.92
2022-08-16T03:39:56.499Z,17.85
2022-08-16T03:42:31.790Z,18.70
2022-08-16T03:45:04.809Z,18.67
2022-08-16T03:47:34.312Z,18.95
2022-08-16T03:50:03.034Z,19.00
2022-08-16T03:52:33.575Z,20.75
2022-08-16T03:55:02.542Z,18.67
2022-08-16T03:57:35.446Z,19.05
2022-08-16T04:00:35.224Z,20.63
2022-08-16T04:03:07.730Z,20.63
2022-08-16T04:05:39.520Z,20.17
2022-08-16T04:08:23.291Z,20.63
2022-08-16T04:10:51.950Z,20.35
2022-08-16T04:13:20.312Z,20.77
2022-08-16T04:15:48.120Z,21.20
2022-08-16T04:18:20.095Z,21.17
2022-08-16T04:20:49.810Z,21.90
2022-08-16T04:23:16.885Z,21.70
2022-08-16T04:25:47.026Z,22.57
2022-08-16T04:28:51.845Z,22.77
2022-08-16T04:31:10.674Z,22.83
2022-08-16T04:33:38.378Z,23.13
2022-08-16T04:36:20.008Z,22.65
2022-08-16T04:38:50.024Z,22.37
2022-08-16T04:41:17.351Z,23.85
2022-08-16T04:43:44.793Z,23.88
2022-08-16T04:46:29.962Z,23.40
2022-08-16T04:49:03.459Z,23.23
2022-08-16T04:51:35.780Z,24.42
2022-08-16T04:54:03.968Z,25.60
2022-08-16T04:56:31.032Z,24.13
2022-08-16T04:59:01.450Z,24.77
2022-08-16T05:01:55.268Z,25.15
2022-08-16T05:04:19.165Z,24.95
2022-08-16T05:06:46.973Z,24.00
2022-08-16T05:09:16.927Z,24.45
2022-08-16T05:11:44.111Z,23.23
2022-08-16T05:14:11.265Z,23.75
2022-08-16T05:16:47.651Z,23.73
2022-08-16T05:19:19.291Z,23.88
2022-08-16T05:21:46.453Z,24.85
2022-08-16T05:24:13.529Z,24.23
2022-08-16T05:26:43.011Z,24.08
2022-08-16T05:29:15.385Z,23.95
2022-08-16T05:31:44.273Z,23.15
2022-08-16T05:34:20.038Z,23.67
2022-08-16T05:36:57.089Z,24.25
2022-08-16T05:39:25.220Z,24.23
2022-08-16T05:41:53.556Z,24.23
2022-08-16T05:44:23.712Z,24.83
2022-08-16T05:46:53.277Z,24.67
2022-08-16T05:49:22.537Z,24.25
2022-08-16T05:51:51.848Z,25.08
2022-08-16T05:54:25.131Z,25.25
2022-08-16T05:56:52.912Z,24.85
2022-08-16T05:59:20.008Z,25.93
2022-08-16T06:01:52.829Z,24.67
2022-08-16T06:04:36.644Z,26.20
2022-08-16T06:07:07.099Z,27.65
2022-08-16T06:09:42.602Z,27.60
2022-08-16T06:12:12.861Z,27.87
2022-08-16T06:15:04.545Z,22.58
2022-08-16T06:17:42.637Z,24.30
2022-08-16T06:20:14.028Z,20.08
2022-08-16T06:22:41.098Z,22.63
2022-08-16T06:25:12.701Z,23.02
2022-08-16T06:27:42.202Z,25.88
2022-08-16T06:30:28.865Z,23.98
2022-08-16T06:32:56.199Z,21.27
2022-08-16T06:35:24.262Z,24.55
2022-08-16T06:37:52.562Z,20.50
2022-08-16T06:40:19.831Z,22.13
2022-08-16T06:42:48.446Z,21.23
2022-08-16T06:45:32.256Z,26.33
2022-08-16T06:48:02.322Z,21.30
2022-08-16T06:50:30.105Z,24.13
2022-08-16T06:53:06.774Z,21.13
2022-08-16T06:55:38.177Z,20.57
2022-08-16T06:58:08.512Z,23.20
2022-08-16T07:00:49.428Z,22.93
2022-08-16T07:03:28.111Z,24.08
2022-08-16T07:06:00.219Z,22.35
2022-08-16T07:08:28.509Z,26.48
2022-08-16T07:10:56.401Z,21.10
2022-08-16T07:14:03.806Z,25.50
2022-08-16T07:16:15.431Z,22.52
2022-08-16T07:19:01.651Z,20.48
2022-08-16T07:21:45.922Z,21.97
2022-08-16T07:24:30.632Z,21.67
2022-08-16T07:26:59.185Z,22.60
2022-08-16T07:29:35.566Z,23.60
2022-08-16T07:32:02.742Z,23.13
2022-08-16T07:34:35.360Z,20.60
2022-08-16T07:37:06.212Z,21.88
2022-08-16T07:39:33.947Z,20.70
2022-08-16T07:42:01.483Z,23.38
2022-08-16T07:44:50.453Z,26.95
2022-08-16T07:47:18.010Z,24.47
2022-08-16T07:49:53.141Z,24.60
2022-08-16T07:52:29.937Z,23.63
2022-08-16T07:54:59.387Z,20.90
2022-08-16T07:57:30.041Z,20.75
2022-08-16T07:59:57.520Z,19.73
2022-08-16T08:02:28.049Z,21.15
2022-08-16T08:04:58.589Z,20.80
2022-08-16T08:07:32.527Z,26.17
2022-08-16T08:09:59.799Z,21.98
2022-08-16T08:12:32.554Z,22.63
2022-08-16T08:15:04.140Z,25.45
2022-08-16T08:17:43.071Z,21.80
2022-08-16T08:20:12.833Z,22.63
2022-08-16T08:22:48.549Z,22.67
2022-08-16T08:25:18.253Z,26.38
2022-08-16T08:27:46.273Z,23.17
2022-08-16T08:30:50.412Z,22.17
2022-08-16T08:33:02.342Z,21.83
2022-08-16T08:35:30.034Z,22.92
2022-08-16T08:37:57.226Z,23.17
2022-08-16T08:40:26.691Z,22.00
2022-08-16T08:42:57.954Z,19.77
2022-08-16T08:45:47.844Z,18.45
2022-08-16T08:48:34.860Z,20.00
2022-08-16T08:51:05.343Z,18.75
2022-08-16T08:53:36.892Z,17.35
2022-08-16T08:56:23.448Z,18.90
2022-08-16T08:58:54.791Z,16.47
2022-08-16T09:01:36.659Z,18.83
2022-08-16T09:04:14.818Z,19.45
2022-08-16T09:07:02.246Z,23.42
2022-08-16T09:09:33.569Z,14.63
2022-08-16T09:12:05.952Z,15.67
2022-08-16T09:14:34.312Z,14.25
2022-08-16T09:17:14.037Z,13.65
2022-08-16T09:19:52.621Z,13.85
2022-08-16T09:22:25.911Z,15.15
2022-08-16T09:25:09.788Z,18.45
2022-08-16T09:27:46.633Z,14.15
2022-08-16T09:30:34.631Z,15.20
2022-08-16T09:33:13.909Z,12.15
2022-08-16T09:35:42.672Z,12.95
2022-08-16T09:38:31.564Z,12.70
2022-08-16T09:40:59.842Z,11.57
2022-08-16T09:44:00.521Z,12.45
2022-08-16T09:46:46.009Z,11.67
2022-08-16T09:49:03.647Z,10.48
2022-08-16T09:51:37.182Z,11.88
2022-08-16T09:54:05.697Z,10.07
2022-08-16T09:56:34.489Z,9.60
2022-08-16T09:59:04.907Z,12.43
2022-08-16T10:01:38.402Z,10.27
2022-08-16T10:04:30.327Z,11.35
2022-08-16T10:09:53.720Z,10.60
2022-08-16T10:12:34.709Z,12.20
2022-08-16T10:15:15.382Z,11.32
2022-08-16T10:17:43.537Z,10.73
2022-08-16T10:20:18.640Z,9.27
2022-08-16T10:22:46.184Z,10.55
2022-08-16T10:27:19.334Z,11.98
2022-08-16T10:28:27.649Z,12.43
2022-08-16T10:30:58.912Z,8.98
2022-08-16T10:33:33.502Z,9.15
2022-08-16T10:36:03.911Z,10.60
2022-08-16T10:38:33.134Z,9.63
2022-08-16T10:41:03.748Z,9.30
2022-08-16T10:49:21.567Z,9.97
2022-08-16T10:52:01.202Z,8.98
2022-08-16T10:54:32.231Z,11.70
2022-08-16T10:57:00.619Z,7.78
2022-08-16T10:59:45.944Z,8.35
2022-08-16T11:02:57.834Z,11.33
2022-08-16T11:05:20.997Z,8.98
2022-08-16T11:08:05.411Z,8.40
2022-08-16T11:11:06.760Z,10.50
2022-08-16T11:19:19.082Z,7.85
2022-08-16T11:24:43.147Z,9.32
2022-08-16T11:27:23.026Z,8.23
2022-08-16T11:29:55.257Z,8.87
2022-08-16T11:32:31.607Z,7.25
2022-08-16T11:35:09.831Z,8.95
2022-08-16T11:38:05.959Z,9.13
2022-08-16T11:40:32.415Z,8.73
2022-08-16T11:43:00.117Z,11.33
2022-08-16T11:45:27.264Z,6.03
2022-08-16T11:48:02.636Z,8.77
2022-08-16T11:50:33.184Z,7.70
2022-08-16T11:53:08.268Z,9.18
2022-08-16T11:55:37.967Z,9.65
2022-08-16T11:58:08.762Z,7.22
2022-08-16T12:00:51.305Z,6.78
2022-08-16T12:03:25.044Z,6.75
2022-08-16T12:06:03.017Z,5.70
2022-08-16T12:08:33.067Z,6.40
2022-08-16T12:11:05.624Z,6.82
2022-08-16T12:13:34.297Z,7.53
2022-08-16T12:16:02.727Z,6.60
2022-08-16T12:18:33.277Z,8.90
2022-08-16T12:21:04.189Z,9.23
2022-08-16T12:23:31.577Z,8.13
2022-08-16T12:25:59.667Z,6.88
2022-08-16T12:28:54.237Z,6.57
2022-08-16T12:31:18.051Z,6.20
2022-08-16T12:33:45.258Z,5.63
2022-08-16T12:36:15.111Z,7.50
2022-08-16T12:38:48.232Z,10.15
2022-08-16T12:41:25.022Z,6.47
2022-08-16T12:44:01.315Z,6.22
2022-08-16T12:46:32.057Z,7.60
2022-08-16T12:49:05.622Z,6.63
2022-08-16T12:51:59.092Z,7.50
2022-08-16T12:54:22.089Z,8.63
2022-08-16T12:56:56.209Z,7.70
2022-08-16T12:59:31.097Z,8.05
2022-08-16T13:02:02.774Z,7.40
2022-08-16T13:04:33.718Z,6.10
2022-08-16T13:07:04.796Z,5.90
2022-08-16T13:09:48.718Z,6.18
2022-08-16T13:12:23.499Z,5.43
2022-08-16T13:14:53.003Z,9.27
2022-08-16T13:17:22.455Z,7.05
2022-08-16T13:20:11.372Z,5.55
2022-08-16T13:22:44.108Z,6.90
2022-08-16T13:25:18.947Z,6.95
2022-08-16T13:28:01.652Z,4.90
2022-08-16T13:30:37.232Z,5.75
2022-08-16T13:33:12.235Z,5.10
2022-08-16T13:35:56.413Z,3.92
2022-08-16T13:38:26.887Z,4.77
2022-08-16T13:40:56.778Z,6.20
2022-08-16T13:43:36.414Z,6.85
2022-08-16T13:46:04.626Z,7.82
2022-08-16T13:51:04.137Z,6.97
2022-08-16T13:53:33.932Z,5.73
2022-08-16T13:56:01.040Z,9.57
2022-08-16T13:58:36.661Z,7.78
2022-08-16T14:01:17.066Z,7.50
2022-08-16T14:03:44.723Z,7.22
2022-08-16T14:06:13.192Z,7.83
2022-08-16T14:08:43.117Z,7.57
2022-08-16T14:11:14.490Z,8.25
2022-08-16T14:13:42.621Z,8.13
2022-08-16T14:16:12.532Z,9.93
2022-08-16T14:18:53.030Z,7.70
2022-08-16T14:21:23.854Z,6.30
2022-08-16T14:23:52.152Z,7.35
2022-08-16T14:26:21.183Z,8.10
2022-08-16T14:28:50.355Z,6.68
2022-08-16T14:31:21.375Z,8.57
2022-08-16T14:33:50.944Z,8.13
2022-08-16T14:36:18.784Z,5.90
2022-08-16T14:38:56.910Z,8.20
2022-08-16T14:41:30.771Z,8.13
2022-08-16T14:44:00.687Z,6.43
2022-08-16T14:46:28.004Z,7.25
2022-08-16T14:48:55.040Z,6.40
2022-08-16T14:51:23.108Z,6.93
2022-08-16T14:53:56.917Z,6.35
2022-08-16T14:56:38.254Z,7.03
2022-08-16T14:59:13.436Z,6.23
2022-08-16T15:01:57.440Z,6.95
2022-08-16T15:04:39.555Z,5.80
2022-08-16T15:07:12.941Z,6.60
2022-08-16T15:10:01.166Z,6.15
2022-08-16T15:12:31.020Z,7.55
2022-08-16T15:15:12.795Z,6.72
2022-08-16T15:17:54.052Z,6.32
2022-08-16T15:20:26.219Z,9.38
2022-08-16T15:22:57.204Z,7.40
2022-08-16T15:25:27.653Z,6.78
2022-08-16T15:27:56.952Z,6.15
2022-08-16T15:30:59.791Z,7.68
2022-08-16T15:33:15.250Z,6.20
2022-08-16T15:35:43.403Z,8.02
2022-08-16T15:38:55.179Z,7.25
2022-08-16T15:41:05.913Z,6.60
2022-08-16T15:43:39.794Z,8.57
2022-08-16T15:46:35.003Z,5.97
2022-08-16T15:49:18.137Z,8.43
2022-08-16T15:51:45.578Z,6.43
2022-08-16T15:54:29.456Z,6.57
2022-08-16T15:57:00.326Z,6.43
2022-08-16T15:59:34.783Z,8.07
2022-08-16T16:02:20.575Z,7.05
2022-08-16T16:04:55.363Z,6.47
2022-08-16T16:07:22.881Z,6.45
2022-08-16T16:09:53.351Z,6.65
2022-08-16T16:12:51.064Z,5.13
2022-08-16T16:15:08.002Z,6.15
2022-08-16T16:17:35.499Z,7.05
2022-08-16T16:20:14.496Z,7.75
2022-08-16T16:22:45.556Z,6.63
2022-08-16T16:25:15.907Z,7.10
2022-08-16T16:27:44.134Z,7.28
2022-08-16T16:30:38.222Z,8.13
2022-08-16T16:33:02.191Z,7.38
2022-08-16T16:35:32.875Z,7.47
2022-08-16T16:38:00.121Z,7.47
2022-08-16T16:40:33.320Z,6.47
2022-08-16T16:43:03.042Z,6.88
2022-08-16T16:45:36.465Z,6.32
2022-08-16T16:48:12.671Z,5.72
2022-08-16T16:50:54.349Z,6.78
2022-08-16T16:53:26.174Z,7.38
2022-08-16T16:55:58.984Z,6.05
2022-08-16T16:58:53.385Z,5.80
2022-08-16T17:01:35.190Z,6.00
2022-08-16T17:04:19.299Z,6.80
2022-08-16T17:06:53.494Z,8.17
2022-08-16T17:09:24.072Z,9.55
2022-08-16T17:11:55.434Z,6.97
2022-08-16T17:14:33.538Z,6.20
2022-08-16T17:17:02.353Z,6.28
2022-08-16T17:19:34.073Z,9.35
2022-08-16T17:22:07.796Z,8.55
2022-08-16T17:24:44.785Z,7.65
2022-08-16T17:27:12.336Z,6.60
2022-08-16T17:29:47.098Z,7.15
2022-08-16T17:32:34.033Z,6.40
2022-08-16T17:35:13.971Z,5.95
2022-08-16T17:37:54.348Z,5.20
2022-08-16T17:40:40.868Z,8.40
2022-08-16T17:43:13.289Z,7.32
2022-08-16T17:45:40.824Z,5.85
2022-08-16T17:48:08.263Z,7.93
2022-08-16T17:50:35.868Z,6.95
2022-08-16T17:53:03.222Z,7.60
2022-08-16T17:55:32.441Z,8.05
2022-08-16T17:57:59.658Z,7.75
2022-08-16T18:00:33.648Z,7.57
2022-08-16T18:03:01.644Z,7.80
2022-08-16T18:05:29.585Z,8.18
2022-08-16T18:07:56.989Z,7.43
2022-08-16T18:10:33.114Z,7.43
2022-08-16T18:13:03.688Z,5.68
2022-08-16T18:15:30.954Z,7.10
2022-08-16T18:17:58.061Z,7.53
2022-08-16T18:20:43.967Z,6.90
2022-08-16T18:23:13.891Z,7.05
2022-08-16T18:25:46.106Z,8.40
2022-08-16T18:28:14.726Z,8.98
2022-08-16T18:30:42.626Z,7.55
2022-08-16T18:33:17.116Z,7.43
2022-08-16T18:35:44.520Z,7.72
2022-08-16T18:38:16.434Z,9.00
2022-08-16T18:40:43.753Z,9.45
2022-08-16T18:43:14.608Z,8.15
2022-08-16T18:45:43.103Z,8.03
2022-08-16T18:48:13.740Z,8.73
2022-08-16T18:50:58.870Z,8.75
2022-08-16T18:53:32.700Z,7.70
2022-08-16T18:56:00.594Z,7.82
2022-08-16T18:58:31.846Z,9.35
2022-08-16T19:00:58.950Z,8.60
2022-08-16T19:03:31.148Z,7.88
2022-08-16T19:06:03.331Z,6.88
2022-08-16T19:08:31.536Z,7.50
2022-08-16T19:10:58.620Z,8.07
2022-08-16T19:13:26.685Z,8.25
2022-08-16T19:15:55.793Z,7.43
2022-08-16T19:18:22.960Z,8.93
2022-08-16T19:20:50.843Z,8.80
2022-08-16T19:23:22.137Z,8.27
2022-08-16T19:25:54.370Z,9.63
2022-08-16T19:28:51.910Z,7.15
2022-08-16T19:31:12.251Z,7.00
2022-08-16T19:33:40.019Z,10.07
2022-08-16T19:36:07.232Z,10.90
2022-08-16T19:38:39.093Z,9.63
2022-08-16T19:41:06.452Z,8.95
2022-08-16T19:43:50.469Z,12.00
2022-08-16T19:46:17.614Z,8.05
2022-08-16T19:48:45.092Z,8.18
2022-08-16T19:51:14.803Z,8.73
2022-08-16T19:53:41.888Z,9.15
2022-08-16T19:56:09.440Z,7.40
2022-08-16T19:58:36.772Z,8.90
2022-08-16T20:01:06.182Z,8.17
2022-08-16T20:03:34.622Z,9.63
2022-08-16T20:06:01.768Z,21.23
2022-08-16T20:08:29.176Z,22.45
2022-08-16T20:10:56.644Z,14.73
2022-08-16T20:13:24.943Z,17.67
2022-08-16T20:15:52.816Z,13.95
2022-08-16T20:18:24.573Z,14.13
2022-08-16T20:20:53.089Z,14.47
2022-08-16T20:23:24.527Z,14.60
2022-08-16T20:25:52.875Z,12.88
2022-08-16T20:28:52.625Z,13.23
2022-08-16T20:31:07.031Z,13.90
2022-08-16T20:33:34.084Z,15.47
2022-08-16T20:36:01.136Z,14.07
2022-08-16T20:38:29.539Z,15.25
2022-08-16T20:40:56.588Z,15.50
2022-08-16T20:43:23.629Z,18.48
2022-08-16T20:45:50.744Z,17.88
2022-08-16T20:48:17.825Z,18.00
2022-08-16T20:50:45.264Z,18.63
2022-08-16T20:53:14.443Z,19.23
2022-08-16T20:55:42.356Z,19.90
2022-08-16T20:58:09.458Z,21.80
2022-08-16T21:00:36.906Z,23.65
2022-08-16T21:03:12.212Z,23.25
2022-08-16T21:05:40.842Z,22.10
2022-08-16T21:08:26.738Z,23.35
2022-08-16T21:10:58.927Z,23.98
2022-08-16T21:13:30.590Z,25.17
2022-08-16T21:16:01.243Z,25.25
2022-08-16T21:18:30.885Z,25.50
2022-08-16T21:21:02.751Z,26.05
2022-08-16T21:23:30.031Z,25.50
2022-08-16T21:26:01.810Z,26.17
2022-08-16T21:28:41.500Z,27.43
2022-08-16T21:31:14.586Z,27.15
2022-08-16T21:33:43.411Z,26.83
2022-08-16T21:36:13.389Z,27.10
2022-08-16T21:38:40.669Z,26.47
2022-08-16T21:41:08.667Z,26.00
2022-08-16T21:43:35.721Z,27.35
2022-08-16T21:46:04.568Z,27.88
2022-08-16T21:48:36.123Z,31.42
2022-08-16T21:51:07.827Z,29.55
2022-08-16T21:53:35.175Z,26.90
2022-08-16T21:56:02.602Z,28.15
2022-08-16T21:58:35.577Z,26.73
2022-08-16T22:01:03.047Z,28.08
2022-08-16T22:03:33.736Z,30.55
2022-08-16T22:06:14.119Z,29.17
2022-08-16T22:08:50.383Z,34.08
2022-08-16T22:11:20.315Z,36.33
2022-08-16T22:13:57.277Z,28.73
2022-08-16T22:16:30.295Z,29.80
2022-08-16T22:18:57.484Z,30.58
2022-08-16T22:21:26.757Z,29.67
2022-08-16T22:23:58.429Z,29.90
2022-08-16T22:26:30.090Z,29.25
2022-08-16T22:28:58.720Z,29.05
2022-08-16T22:31:35.316Z,41.92
2022-08-16T22:34:09.842Z,42.00
2022-08-16T22:36:39.808Z,42.03
2022-08-16T22:39:08.622Z,41.63
2022-08-16T22:41:36.690Z,42.35
2022-08-16T22:44:08.130Z,43.58
2022-08-16T22:46:38.981Z,42.63
2022-08-16T22:49:06.735Z,46.15
2022-08-16T22:51:34.518Z,42.78
2022-08-16T22:54:40.955Z,42.72
2022-08-16T22:56:48.795Z,43.47
2022-08-16T22:59:15.863Z,44.00
2022-08-16T23:01:43.931Z,45.38
2022-08-16T23:04:11.041Z,43.85
2022-08-16T23:06:40.794Z,44.50
2022-08-16T23:09:10.654Z,43.93
2022-08-16T23:11:38.782Z,46.15
2022-08-16T23:14:05.836Z,43.37
2022-08-16T23:16:34.649Z,43.97
2022-08-16T23:19:07.921Z,44.30
2022-08-16T23:21:35.337Z,46.13
2022-08-16T23:24:07.960Z,45.75
2022-08-16T23:26:45.366Z,44.65
2022-08-16T23:29:24.974Z,45.75
2022-08-16T23:31:59.983Z,44.08
2022-08-16T23:34:27.804Z,45.63
2022-08-16T23:36:55.342Z,46.10
2022-08-16T23:39:22.544Z,46.67
2022-08-16T23:41:49.618Z,45.90
2022-08-16T23:44:42.363Z,44.60
2022-08-16T23:47:09.289Z,44.65
2022-08-16T23:49:55.925Z,44.78
2022-08-16T23:52:42.293Z,44.65
2022-08-16T23:55:10.866Z,44.25
2022-08-16T23:57:37.929Z,44.45
